createdAt,value
2022-07-25T00:00:09.443Z,6.82
2022-07-25T00:05:11.037Z,7.00
2022-07-25T00:10:12.602Z,6.68
2022-07-25T00:15:14.225Z,7.20
2022-07-25T00:20:15.790Z,6.47
2022-07-25T00:25:17.242Z,7.15
2022-07-25T00:30:18.783Z,7.45
2022-07-25T00:35:20.394Z,7.90
2022-07-25T00:40:22.490Z,7.38
2022-07-25T00:45:23.963Z,7.47
2022-07-25T00:50:25.566Z,7.28
2022-07-25T00:55:27.489Z,7.95
2022-07-25T01:00:29.106Z,8.05
2022-07-25T01:05:31.805Z,7.85
2022-07-25T01:10:34.376Z,8.32
2022-07-25T01:15:36.093Z,7.68
2022-07-25T01:20:37.788Z,7.55
2022-07-25T01:25:39.381Z,7.45
2022-07-25T01:30:41.015Z,8.23
2022-07-25T01:35:43.656Z,8.18
2022-07-25T01:40:45.293Z,7.45
2022-07-25T01:45:46.843Z,8.18
2022-07-25T01:50:48.455Z,8.48
2022-07-25T01:55:50.558Z,8.82
2022-07-25T02:00:53.742Z,7.90
2022-07-25T02:05:55.663Z,8.27
2022-07-25T02:10:58.022Z,8.18
2022-07-25T02:16:00.043Z,7.97
2022-07-25T02:21:01.629Z,8.18
2022-07-25T02:26:03.854Z,8.45
2022-07-25T02:31:05.668Z,8.48
2022-07-25T02:36:07.883Z,8.32
2022-07-25T02:41:09.424Z,8.10
2022-07-25T02:46:11.069Z,7.90
2022-07-25T02:51:12.813Z,8.02
2022-07-25T02:56:14.277Z,8.30
2022-07-25T03:01:16.313Z,8.32
2022-07-25T03:06:18.170Z,8.63
2022-07-25T03:11:19.723Z,9.05
2022-07-25T03:16:21.417Z,7.65
2022-07-25T03:21:22.968Z,8.30
2022-07-25T03:26:24.514Z,8.00
2022-07-25T03:31:26.561Z,7.75
2022-07-25T03:36:28.207Z,8.02
2022-07-25T03:41:29.708Z,8.35
2022-07-25T03:46:31.275Z,9.35
2022-07-25T03:51:32.788Z,8.63
2022-07-25T03:56:48.130Z,8.20
2022-07-25T04:01:50.609Z,8.45
2022-07-25T04:06:52.108Z,8.35
2022-07-25T04:11:53.558Z,9.43
2022-07-25T04:16:55.122Z,8.27
2022-07-25T04:21:56.717Z,8.90
2022-07-25T04:26:58.230Z,8.77
2022-07-25T04:31:59.734Z,7.35
2022-07-25T04:37:01.292Z,9.25
2022-07-25T04:42:02.744Z,7.95
2022-07-25T04:47:04.895Z,7.45
2022-07-25T04:52:06.363Z,7.45
2022-07-25T04:57:07.837Z,7.38
2022-07-25T05:02:09.340Z,6.50
2022-07-25T05:07:10.825Z,6.82
2022-07-25T05:12:12.354Z,7.15
2022-07-25T05:17:14.668Z,5.93
2022-07-25T05:22:16.198Z,6.15
2022-07-25T05:27:17.748Z,6.75
2022-07-25T05:32:19.507Z,6.07
2022-07-25T05:37:21.058Z,5.85
2022-07-25T05:42:22.835Z,5.63
2022-07-25T05:47:24.301Z,5.43
2022-07-25T05:52:25.786Z,5.95
2022-07-25T05:57:27.568Z,6.78
2022-07-25T06:02:29.192Z,6.25
2022-07-25T06:07:30.739Z,6.18
2022-07-25T06:12:33.692Z,5.18
2022-07-25T06:17:38.259Z,6.03
2022-07-25T06:22:40.327Z,5.93
2022-07-25T06:27:42.037Z,5.68
2022-07-25T06:32:43.493Z,5.43
2022-07-25T06:37:45.376Z,6.25
2022-07-25T06:42:47.847Z,5.38
2022-07-25T06:47:49.420Z,5.60
2022-07-25T06:52:51.039Z,5.20
2022-07-25T06:57:52.528Z,5.13
2022-07-25T07:03:01.438Z,4.43
2022-07-25T07:08:03.761Z,5.68
2022-07-25T07:13:10.647Z,5.03
2022-07-25T07:18:12.110Z,5.53
2022-07-25T07:23:16.515Z,5.57
2022-07-25T07:28:18.810Z,5.20
2022-07-25T07:33:20.357Z,5.25
2022-07-25T07:38:21.903Z,5.35
2022-07-25T07:43:29.364Z,5.00
2022-07-25T07:48:33.658Z,5.05
2022-07-25T07:53:53.589Z,5.57
2022-07-25T07:58:55.091Z,5.07
2022-07-25T08:03:56.739Z,5.47
2022-07-25T08:08:58.189Z,5.20
2022-07-25T08:13:59.732Z,5.35
2022-07-25T08:19:01.405Z,5.38
2022-07-25T08:24:03.223Z,5.28
2022-07-25T08:29:18.812Z,5.35
2022-07-25T08:34:22.493Z,5.13
2022-07-25T08:39:24.085Z,5.30
2022-07-25T08:44:30.961Z,5.20
2022-07-25T08:54:33.912Z,5.13
2022-07-25T08:59:35.650Z,5.18
2022-07-25T09:04:38.081Z,5.18
2022-07-25T09:09:39.724Z,5.55
2022-07-25T09:14:44.644Z,6.03
2022-07-25T09:19:54.730Z,5.00
2022-07-25T09:24:56.319Z,5.28
2022-07-25T09:29:57.872Z,5.43
2022-07-25T09:34:59.326Z,5.03
2022-07-25T09:40:00.818Z,5.45
2022-07-25T09:45:06.667Z,5.53
2022-07-25T09:50:08.710Z,4.95
2022-07-25T09:55:11.019Z,4.93
2022-07-25T10:00:19.274Z,5.32
2022-07-25T10:05:31.554Z,5.32
2022-07-25T10:10:41.301Z,5.07
2022-07-25T10:15:53.138Z,5.25
2022-07-25T10:21:26.914Z,5.40
2022-07-25T10:26:30.468Z,5.05
2022-07-25T10:31:31.900Z,5.57
2022-07-25T10:36:56.080Z,5.60
2022-07-25T10:42:02.361Z,5.60
2022-07-25T10:47:08.726Z,5.90
2022-07-25T10:52:18.842Z,5.68
2022-07-25T10:57:20.997Z,4.82
2022-07-25T11:02:24.309Z,4.93
2022-07-25T11:07:28.631Z,5.10
2022-07-25T11:12:31.249Z,5.70
2022-07-25T11:17:32.867Z,5.68
2022-07-25T11:22:35.406Z,4.85
2022-07-25T11:27:36.904Z,4.60
2022-07-25T11:32:43.832Z,5.43
2022-07-25T11:37:48.846Z,5.70
2022-07-25T11:42:52.499Z,5.45
2022-07-25T11:48:10.112Z,4.80
2022-07-25T11:53:14.726Z,4.65
2022-07-25T11:58:17.707Z,5.25
2022-07-25T12:03:23.114Z,5.15
2022-07-25T12:08:25.458Z,5.82
2022-07-25T12:13:31.216Z,5.88
2022-07-25T12:18:32.719Z,4.68
2022-07-25T12:23:34.553Z,5.60
2022-07-25T12:28:36.150Z,5.25
2022-07-25T12:33:37.820Z,5.75
2022-07-25T12:38:39.515Z,5.60
2022-07-25T12:43:40.950Z,6.22
2022-07-25T12:48:42.503Z,5.88
2022-07-25T12:53:44.154Z,4.95
2022-07-25T12:58:45.827Z,5.60
2022-07-25T13:03:47.391Z,5.68
2022-07-25T13:08:48.928Z,5.28
2022-07-25T13:13:50.427Z,5.57
2022-07-25T13:18:52.086Z,5.82
2022-07-25T13:23:53.554Z,5.93
2022-07-25T13:28:59.645Z,5.45
2022-07-25T13:34:02.684Z,5.78
2022-07-25T13:39:05.160Z,6.05
2022-07-25T13:44:07.012Z,6.07
2022-07-25T13:49:09.349Z,6.03
2022-07-25T13:54:12.571Z,5.50
2022-07-25T13:59:18.948Z,5.85
2022-07-25T14:04:22.810Z,6.03
2022-07-25T14:09:24.351Z,6.05
2022-07-25T14:14:25.916Z,5.47
2022-07-25T14:19:27.437Z,5.72
2022-07-25T14:24:28.885Z,5.70
2022-07-25T14:29:30.764Z,5.38
2022-07-25T14:34:32.822Z,6.03
2022-07-25T14:39:34.541Z,6.07
2022-07-25T14:44:37.388Z,5.82
2022-07-25T14:49:40.212Z,5.45
2022-07-25T14:54:41.968Z,6.20
2022-07-25T14:59:43.455Z,6.03
2022-07-25T15:04:45.050Z,5.85
2022-07-25T15:09:46.650Z,5.68
2022-07-25T15:14:48.127Z,6.32
2022-07-25T15:19:49.653Z,6.57
2022-07-25T15:25:21.821Z,6.28
2022-07-25T15:30:12.649Z,5.88
2022-07-25T15:35:14.898Z,6.32
2022-07-25T15:40:16.406Z,5.70
2022-07-25T15:45:36.251Z,5.32
2022-07-25T15:50:40.469Z,5.60
2022-07-25T15:55:42.406Z,4.45
2022-07-25T16:00:44.080Z,4.78
2022-07-25T16:05:45.715Z,5.07
2022-07-25T16:10:47.544Z,4.88
2022-07-25T16:15:49.125Z,4.55
2022-07-25T16:20:50.618Z,4.10
2022-07-25T16:25:52.125Z,4.30
2022-07-25T16:30:53.660Z,4.47
2022-07-25T16:35:55.147Z,4.40
2022-07-25T16:40:56.575Z,3.95
2022-07-25T16:45:58.102Z,4.43
2022-07-25T16:50:59.717Z,4.80
2022-07-25T16:56:01.198Z,5.15
2022-07-25T17:01:02.690Z,4.00
2022-07-25T17:06:04.508Z,4.57
2022-07-25T17:11:06.142Z,4.00
2022-07-25T17:16:07.898Z,3.65
2022-07-25T17:21:10.583Z,3.97
2022-07-25T17:26:12.166Z,3.40
2022-07-25T17:31:14.313Z,3.55
2022-07-25T17:36:15.941Z,3.20
2022-07-25T17:41:17.878Z,2.47
2022-07-25T17:46:19.366Z,2.80
2022-07-25T17:51:20.847Z,2.97
2022-07-25T17:56:22.342Z,3.05
2022-07-25T18:01:23.925Z,2.38
2022-07-25T18:06:29.745Z,2.95
2022-07-25T18:11:31.738Z,2.92
2022-07-25T18:16:33.527Z,2.63
2022-07-25T18:21:35.052Z,2.17
2022-07-25T18:26:36.539Z,2.42
2022-07-25T18:31:38.113Z,2.10
2022-07-25T18:36:40.450Z,1.92
2022-07-25T18:41:42.020Z,2.40
2022-07-25T18:46:45.688Z,1.83
2022-07-25T18:51:47.309Z,2.40
2022-07-25T18:56:48.904Z,1.63
2022-07-25T19:01:51.213Z,1.80
2022-07-25T19:06:52.844Z,1.88
2022-07-25T19:11:56.714Z,1.92
2022-07-25T19:17:18.967Z,1.50
2022-07-25T19:22:20.850Z,1.98
2022-07-25T19:27:24.947Z,1.70
2022-07-25T19:32:27.120Z,1.50
2022-07-25T19:37:29.094Z,1.23
2022-07-25T19:42:30.562Z,1.33
2022-07-25T19:47:32.033Z,1.63
2022-07-25T19:52:33.522Z,1.00
2022-07-25T19:57:35.428Z,1.45
2022-07-25T20:02:37.014Z,1.58
2022-07-25T20:07:38.936Z,1.30
2022-07-25T20:12:40.414Z,1.48
2022-07-25T20:17:41.936Z,0.90
2022-07-25T20:22:44.287Z,1.52
2022-07-25T20:27:49.791Z,2.20
2022-07-25T20:32:51.405Z,1.20
2022-07-25T20:37:53.022Z,1.63
2022-07-25T20:42:55.677Z,1.50
2022-07-25T20:47:57.249Z,1.10
2022-07-25T20:52:58.821Z,1.30
2022-07-25T20:58:00.470Z,1.38
2022-07-25T21:03:02.118Z,1.27
2022-07-25T21:08:04.740Z,0.95
2022-07-25T21:13:06.220Z,0.90
2022-07-25T21:18:07.670Z,1.50
2022-07-25T21:23:10.805Z,1.08
2022-07-25T21:28:12.324Z,0.90
2022-07-25T21:33:14.818Z,1.35
2022-07-25T21:38:27.573Z,1.15
2022-07-25T21:43:29.826Z,1.30
2022-07-25T21:48:49.598Z,1.70
2022-07-25T21:53:52.817Z,1.60
2022-07-25T21:58:54.252Z,1.27
2022-07-25T22:03:55.748Z,1.08
2022-07-25T22:08:57.398Z,1.10
2022-07-25T22:13:58.851Z,1.58
2022-07-25T22:19:01.258Z,1.10
2022-07-25T22:24:02.741Z,1.50
2022-07-25T22:29:04.724Z,1.40
2022-07-25T22:34:07.033Z,1.00
2022-07-25T22:39:08.940Z,1.15
2022-07-25T22:44:10.948Z,0.98
2022-07-25T22:49:13.272Z,0.95
2022-07-25T22:54:14.947Z,0.70
2022-07-25T22:59:17.852Z,0.80
2022-07-25T23:04:19.406Z,0.70
2022-07-25T23:09:21.039Z,0.55
2022-07-25T23:14:22.505Z,0.60
2022-07-25T23:19:23.970Z,0.50
2022-07-25T23:24:25.475Z,0.80
2022-07-25T23:29:27.010Z,0.70
2022-07-25T23:34:28.567Z,0.93
2022-07-25T23:39:31.726Z,1.00
2022-07-25T23:44:33.310Z,0.55
2022-07-25T23:49:38.080Z,0.68
2022-07-25T23:54:40.609Z,0.98
2022-07-25T23:59:42.125Z,0.50
